sensor_id;sensor_type;location;lat;lon;timestamp;pressure;altitude;pressure_sealevel;temperature;humidity
13867;BME280;7003;46.982;15.248;2023-02-17T00:00:55;98087.28;;;-1.11;100.00
13867;BME280;7003;46.982;15.248;2023-02-17T00:03:24;98094.09;;;-0.98;100.00
13867;BME280;7003;46.982;15.248;2023-02-17T00:05:54;98096.59;;;-1.03;100.00
13867;BME280;7003;46.982;15.248;2023-02-17T00:08:21;98096.34;;;-0.90;100.00
13867;BME280;7003;46.982;15.248;2023-02-17T00:10:55;98091.50;;;-1.10;100.00
13867;BME280;7003;46.982;15.248;2023-02-17T00:13:23;98094.03;;;-0.52;100.00
13867;BME280;7003;46.982;15.248;2023-02-17T00:15:50;98083.13;;;-0.60;100.00
13867;BME280;7003;46.982;15.248;2023-02-17T00:18:20;98084.72;;;-0.59;100.00
13867;BME280;7003;46.982;15.248;2023-02-17T00:20:49;98091.13;;;-0.79;100.00
13867;BME280;7003;46.982;15.248;2023-02-17T00:23:19;98082.16;;;-0.71;100.00
13867;BME280;7003;46.982;15.248;2023-02-17T00:25:46;98086.22;;;-0.75;100.00
13867;BME280;7003;46.982;15.248;2023-02-17T00:28:13;98079.06;;;-0.68;100.00
13867;BME280;7003;46.982;15.248;2023-02-17T00:30:40;98078.09;;;-0.39;100.00
13867;BME280;7003;46.982;15.248;2023-02-17T00:33:07;98092.88;;;-0.32;100.00
13867;BME280;7003;46.982;15.248;2023-02-17T00:35:38;98089.59;;;-0.51;100.00
13867;BME280;7003;46.982;15.248;2023-02-17T00:38:09;98083.38;;;-0.62;100.00
13867;BME280;7003;46.982;15.248;2023-02-17T00:40:36;98086.19;;;-0.52;100.00
13867;BME280;7003;46.982;15.248;2023-02-17T00:43:06;98084.72;;;-0.48;100.00
13867;BME280;7003;46.982;15.248;2023-02-17T00:45:35;98081.69;;;-0.68;100.00
13867;BME280;7003;46.982;15.248;2023-02-17T00:48:02;98093.59;;;-0.60;100.00
13867;BME280;7003;46.982;15.248;2023-02-17T00:50:31;98097.34;;;-0.56;100.00
13867;BME280;7003;46.982;15.248;2023-02-17T00:53:01;98093.72;;;-0.67;100.00
13867;BME280;7003;46.982;15.248;2023-02-17T00:55:29;98097.13;;;-0.55;100.00
13867;BME280;7003;46.982;15.248;2023-02-17T00:57:56;98101.88;;;-0.52;100.00
13867;BME280;7003;46.982;15.248;2023-02-17T01:00:24;98079.84;;;-0.67;100.00
13867;BME280;7003;46.982;15.248;2023-02-17T01:02:51;98082.78;;;-0.12;100.00
13867;BME280;7003;46.982;15.248;2023-02-17T01:05:20;98091.88;;;-0.15;100.00
13867;BME280;7003;46.982;15.248;2023-02-17T01:07:47;98088.97;;;-0.30;100.00
13867;BME280;7003;46.982;15.248;2023-02-17T01:10:17;98088.66;;;-0.33;100.00
13867;BME280;7003;46.982;15.248;2023-02-17T01:12:49;98087.00;;;-0.23;100.00
13867;BME280;7003;46.982;15.248;2023-02-17T01:15:16;98080.03;;;-0.46;100.00
13867;BME280;7003;46.982;15.248;2023-02-17T01:17:43;98069.44;;;-0.27;100.00
13867;BME280;7003;46.982;15.248;2023-02-17T01:20:13;98074.50;;;-0.09;100.00
13867;BME280;7003;46.982;15.248;2023-02-17T01:22:42;98067.31;;;-0.14;100.00
13867;BME280;7003;46.982;15.248;2023-02-17T01:25:09;98075.66;;;-0.17;100.00
13867;BME280;7003;46.982;15.248;2023-02-17T01:27:36;98086.25;;;-0.23;100.00
13867;BME280;7003;46.982;15.248;2023-02-17T01:30:06;98074.84;;;-0.17;100.00
13867;BME280;7003;46.982;15.248;2023-02-17T01:32:35;98067.75;;;-0.33;100.00
13867;BME280;7003;46.982;15.248;2023-02-17T01:35:04;98064.34;;;-0.34;100.00
13867;BME280;7003;46.982;15.248;2023-02-17T01:37:32;98065.78;;;-0.26;100.00
13867;BME280;7003;46.982;15.248;2023-02-17T01:39:59;98070.72;;;-0.13;100.00
13867;BME280;7003;46.982;15.248;2023-02-17T01:42:30;98065.13;;;-0.05;100.00
13867;BME280;7003;46.982;15.248;2023-02-17T01:45:32;98063.28;;;0.24;100.00
13867;BME280;7003;46.982;15.248;2023-02-17T01:48:05;98058.44;;;0.16;100.00
13867;BME280;7003;46.982;15.248;2023-02-17T01:50:39;98053.84;;;0.06;100.00
13867;BME280;7003;46.982;15.248;2023-02-17T01:53:08;98057.97;;;0.19;100.00
13867;BME280;7003;46.982;15.248;2023-02-17T01:55:38;98056.09;;;0.03;100.00
13867;BME280;7003;46.982;15.248;2023-02-17T01:58:10;98053.44;;;-0.14;100.00
13867;BME280;7003;46.982;15.248;2023-02-17T02:00:40;98040.78;;;-0.06;100.00
13867;BME280;7003;46.982;15.248;2023-02-17T02:03:12;98044.69;;;-0.08;100.00
13867;BME280;7003;46.982;15.248;2023-02-17T02:05:40;98041.84;;;0.10;100.00
13867;BME280;7003;46.982;15.248;2023-02-17T02:08:08;98035.94;;;0.15;100.00
13867;BME280;7003;46.982;15.248;2023-02-17T02:10:39;98040.66;;;0.01;100.00
13867;BME280;7003;46.982;15.248;2023-02-17T02:13:06;98032.91;;;0.06;100.00
13867;BME280;7003;46.982;15.248;2023-02-17T02:15:38;98032.97;;;0.11;100.00
13867;BME280;7003;46.982;15.248;2023-02-17T02:18:26;98022.47;;;0.23;100.00
13867;BME280;7003;46.982;15.248;2023-02-17T02:24:13;98023.72;;;0.20;100.00
13867;BME280;7003;46.982;15.248;2023-02-17T02:27:07;98025.38;;;0.26;100.00
13867;BME280;7003;46.982;15.248;2023-02-17T02:30:05;98024.28;;;0.22;100.00
13867;BME280;7003;46.982;15.248;2023-02-17T02:32:56;98028.09;;;0.15;100.00
13867;BME280;7003;46.982;15.248;2023-02-17T02:35:33;98025.06;;;0.39;100.00
13867;BME280;7003;46.982;15.248;2023-02-17T02:38:10;98023.09;;;0.47;100.00
13867;BME280;7003;46.982;15.248;2023-02-17T02:40:42;98016.91;;;0.36;100.00
13867;BME280;7003;46.982;15.248;2023-02-17T02:43:11;98022.38;;;0.34;100.00
13867;BME280;7003;46.982;15.248;2023-02-17T02:45:40;98019.34;;;0.26;100.00
13867;BME280;7003;46.982;15.248;2023-02-17T02:48:11;98021.50;;;0.29;100.00
13867;BME280;7003;46.982;15.248;2023-02-17T02:50:55;98020.56;;;0.35;100.00
13867;BME280;7003;46.982;15.248;2023-02-17T02:53:44;98021.91;;;0.37;100.00
13867;BME280;7003;46.982;15.248;2023-02-17T02:56:26;98011.75;;;0.24;100.00
13867;BME280;7003;46.982;15.248;2023-02-17T02:59:03;98010.47;;;0.27;100.00
13867;BME280;7003;46.982;15.248;2023-02-17T03:01:40;98009.69;;;0.26;100.00
13867;BME280;7003;46.982;15.248;2023-02-17T03:04:16;98012.38;;;0.31;100.00
13867;BME280;7003;46.982;15.248;2023-02-17T03:06:50;98011.69;;;0.36;100.00
13867;BME280;7003;46.982;15.248;2023-02-17T03:09:20;98015.56;;;0.33;100.00
13867;BME280;7003;46.982;15.248;2023-02-17T03:11:50;98011.22;;;0.22;100.00
13867;BME280;7003;46.982;15.248;2023-02-17T03:14:20;98018.56;;;0.25;100.00
13867;BME280;7003;46.982;15.248;2023-02-17T03:16:48;98015.81;;;0.15;100.00
13867;BME280;7003;46.982;15.248;2023-02-17T03:19:22;98014.75;;;0.33;100.00
13867;BME280;7003;46.982;15.248;2023-02-17T03:21:54;98015.66;;;0.38;100.00
13867;BME280;7003;46.982;15.248;2023-02-17T03:24:22;98021.03;;;0.49;100.00
13867;BME280;7003;46.982;15.248;2023-02-17T03:26:52;98026.25;;;0.32;100.00
13867;BME280;7003;46.982;15.248;2023-02-17T03:29:19;98009.13;;;0.24;100.00
13867;BME280;7003;46.982;15.248;2023-02-17T03:31:46;98015.16;;;0.42;100.00
13867;BME280;7003;46.982;15.248;2023-02-17T03:34:15;98009.00;;;0.31;100.00
13867;BME280;7003;46.982;15.248;2023-02-17T03:36:46;98005.34;;;0.15;100.00
13867;BME280;7003;46.982;15.248;2023-02-17T03:39:13;98004.41;;;-0.07;100.00
13867;BME280;7003;46.982;15.248;2023-02-17T03:41:43;98007.13;;;-0.02;100.00
13867;BME280;7003;46.982;15.248;2023-02-17T03:44:12;98016.97;;;0.08;100.00
13867;BME280;7003;46.982;15.248;2023-02-17T03:46:42;98018.31;;;0.10;100.00
13867;BME280;7003;46.982;15.248;2023-02-17T03:49:09;98015.53;;;0.00;100.00
13867;BME280;7003;46.982;15.248;2023-02-17T03:51:39;98022.00;;;-0.19;100.00
13867;BME280;7003;46.982;15.248;2023-02-17T03:54:09;98015.59;;;-0.12;100.00
13867;BME280;7003;46.982;15.248;2023-02-17T03:56:39;98023.06;;;-0.04;100.00
13867;BME280;7003;46.982;15.248;2023-02-17T03:59:08;98030.19;;;0.01;100.00
13867;BME280;7003;46.982;15.248;2023-02-17T04:01:36;98020.25;;;0.15;100.00
13867;BME280;7003;46.982;15.248;2023-02-17T04:04:03;98026.28;;;0.15;100.00
13867;BME280;7003;46.982;15.248;2023-02-17T04:06:38;98024.19;;;0.17;100.00
13867;BME280;7003;46.982;15.248;2023-02-17T04:09:05;98030.63;;;0.26;100.00
13867;BME280;7003;46.982;15.248;2023-02-17T04:11:34;98027.81;;;0.16;100.00
13867;BME280;7003;46.982;15.248;2023-02-17T04:14:02;98026.66;;;0.41;100.00
13867;BME280;7003;46.982;15.248;2023-02-17T04:16:41;98028.09;;;0.48;100.00
13867;BME280;7003;46.982;15.248;2023-02-17T04:19:09;98026.25;;;0.49;100.00
13867;BME280;7003;46.982;15.248;2023-02-17T04:21:37;98032.22;;;0.44;100.00
13867;BME280;7003;46.982;15.248;2023-02-17T04:24:04;98028.63;;;0.33;100.00
13867;BME280;7003;46.982;15.248;2023-02-17T04:26:31;98030.63;;;0.26;100.00
13867;BME280;7003;46.982;15.248;2023-02-17T04:29:02;98032.44;;;0.26;100.00
13867;BME280;7003;46.982;15.248;2023-02-17T04:31:33;98029.81;;;0.09;100.00
13867;BME280;7003;46.982;15.248;2023-02-17T04:34:00;98030.94;;;0.13;100.00
13867;BME280;7003;46.982;15.248;2023-02-17T04:36:27;98031.78;;;0.02;100.00
13867;BME280;7003;46.982;15.248;2023-02-17T04:38:54;98028.06;;;-0.02;100.00
13867;BME280;7003;46.982;15.248;2023-02-17T04:41:23;98022.03;;;-0.03;100.00
13867;BME280;7003;46.982;15.248;2023-02-17T04:43:53;98016.25;;;0.12;100.00
13867;BME280;7003;46.982;15.248;2023-02-17T04:46:22;98015.13;;;0.08;100.00
13867;BME280;7003;46.982;15.248;2023-02-17T04:48:51;98016.88;;;0.03;100.00
13867;BME280;7003;46.982;15.248;2023-02-17T04:51:18;98016.00;;;-0.03;100.00
13867;BME280;7003;46.982;15.248;2023-02-17T04:53:46;98018.47;;;0.04;100.00
13867;BME280;7003;46.982;15.248;2023-02-17T04:56:13;98015.47;;;0.12;100.00
13867;BME280;7003;46.982;15.248;2023-02-17T04:58:43;98015.00;;;0.15;100.00
13867;BME280;7003;46.982;15.248;2023-02-17T05:01:10;98015.81;;;0.15;100.00
13867;BME280;7003;46.982;15.248;2023-02-17T05:03:38;97999.28;;;0.31;100.00
13867;BME280;7003;46.982;15.248;2023-02-17T05:06:10;98012.63;;;0.47;100.00
13867;BME280;7003;46.982;15.248;2023-02-17T05:08:40;98005.88;;;0.51;100.00
13867;BME280;7003;46.982;15.248;2023-02-17T05:11:07;98007.16;;;0.31;100.00
13867;BME280;7003;46.982;15.248;2023-02-17T05:13:34;98007.38;;;0.13;100.00
13867;BME280;7003;46.982;15.248;2023-02-17T05:16:02;97999.94;;;0.22;100.00
13867;BME280;7003;46.982;15.248;2023-02-17T05:18:29;98000.38;;;0.02;100.00
13867;BME280;7003;46.982;15.248;2023-02-17T05:20:57;97995.63;;;0.16;100.00
13867;BME280;7003;46.982;15.248;2023-02-17T05:23:27;97998.13;;;0.22;100.00
13867;BME280;7003;46.982;15.248;2023-02-17T05:25:54;97993.91;;;0.21;100.00
13867;BME280;7003;46.982;15.248;2023-02-17T05:28:24;97989.28;;;-0.05;100.00
13867;BME280;7003;46.982;15.248;2023-02-17T05:30:54;97980.22;;;-0.14;100.00
13867;BME280;7003;46.982;15.248;2023-02-17T05:33:21;97986.25;;;-0.14;100.00
13867;BME280;7003;46.982;15.248;2023-02-17T05:35:51;97992.63;;;-0.10;100.00
13867;BME280;7003;46.982;15.248;2023-02-17T05:38:20;97992.47;;;-0.03;100.00
13867;BME280;7003;46.982;15.248;2023-02-17T05:40:49;97993.34;;;0.03;100.00
13867;BME280;7003;46.982;15.248;2023-02-17T05:43:16;97996.81;;;-0.09;100.00
13867;BME280;7003;46.982;15.248;2023-02-17T05:45:44;97995.00;;;-0.08;100.00
13867;BME280;7003;46.982;15.248;2023-02-17T05:48:12;97994.53;;;-0.05;100.00
13867;BME280;7003;46.982;15.248;2023-02-17T05:50:40;97998.97;;;0.11;100.00
13867;BME280;7003;46.982;15.248;2023-02-17T05:53:08;98003.75;;;0.14;100.00
13867;BME280;7003;46.982;15.248;2023-02-17T05:55:38;98002.50;;;-0.12;100.00
13867;BME280;7003;46.982;15.248;2023-02-17T05:58:07;97996.59;;;0.10;100.00
13867;BME280;7003;46.982;15.248;2023-02-17T06:00:41;97999.69;;;0.07;100.00
13867;BME280;7003;46.982;15.248;2023-02-17T06:03:13;98000.88;;;-0.01;100.00
13867;BME280;7003;46.982;15.248;2023-02-17T06:05:46;98005.63;;;0.02;100.00
13867;BME280;7003;46.982;15.248;2023-02-17T06:08:14;98007.69;;;0.00;100.00
13867;BME280;7003;46.982;15.248;2023-02-17T06:10:45;98012.22;;;0.21;100.00
13867;BME280;7003;46.982;15.248;2023-02-17T06:13:15;98011.66;;;0.03;100.00
13867;BME280;7003;46.982;15.248;2023-02-17T06:15:44;98016.41;;;-0.23;100.00
13867;BME280;7003;46.982;15.248;2023-02-17T06:18:14;98016.53;;;-0.18;100.00
13867;BME280;7003;46.982;15.248;2023-02-17T06:20:44;98019.94;;;-0.17;100.00
13867;BME280;7003;46.982;15.248;2023-02-17T06:23:15;98009.00;;;-0.43;100.00
13867;BME280;7003;46.982;15.248;2023-02-17T06:25:46;98001.34;;;-0.61;100.00
13867;BME280;7003;46.982;15.248;2023-02-17T06:28:16;98005.59;;;-0.71;100.00
13867;BME280;7003;46.982;15.248;2023-02-17T06:30:45;98001.31;;;-0.49;100.00
13867;BME280;7003;46.982;15.248;2023-02-17T06:33:15;98004.22;;;-0.62;100.00
13867;BME280;7003;46.982;15.248;2023-02-17T06:35:48;98004.06;;;-0.56;100.00
13867;BME280;7003;46.982;15.248;2023-02-17T06:38:21;97996.31;;;-0.51;100.00
13867;BME280;7003;46.982;15.248;2023-02-17T06:40:53;98005.09;;;-0.28;100.00
13867;BME280;7003;46.982;15.248;2023-02-17T06:43:26;98002.59;;;-0.23;100.00
13867;BME280;7003;46.982;15.248;2023-02-17T06:45:56;97997.56;;;-0.53;100.00
13867;BME280;7003;46.982;15.248;2023-02-17T06:48:25;98014.31;;;-0.38;100.00
13867;BME280;7003;46.982;15.248;2023-02-17T06:51:02;98012.09;;;-0.17;100.00
13867;BME280;7003;46.982;15.248;2023-02-17T06:53:35;98010.97;;;-0.21;100.00
13867;BME280;7003;46.982;15.248;2023-02-17T06:56:07;98008.47;;;0.00;100.00
13867;BME280;7003;46.982;15.248;2023-02-17T06:58:36;98014.91;;;0.26;100.00
13867;BME280;7003;46.982;15.248;2023-02-17T07:01:05;98025.22;;;0.50;100.00
13867;BME280;7003;46.982;15.248;2023-02-17T07:03:37;98023.97;;;0.69;100.00
13867;BME280;7003;46.982;15.248;2023-02-17T07:06:08;98029.94;;;0.86;100.00
13867;BME280;7003;46.982;15.248;2023-02-17T07:08:36;98021.38;;;0.91;100.00
13867;BME280;7003;46.982;15.248;2023-02-17T07:11:11;98019.09;;;0.77;100.00
13867;BME280;7003;46.982;15.248;2023-02-17T07:13:40;98014.63;;;1.16;100.00
13867;BME280;7003;46.982;15.248;2023-02-17T07:16:11;98015.09;;;1.52;100.00
13867;BME280;7003;46.982;15.248;2023-02-17T07:18:40;98010.47;;;1.64;100.00
13867;BME280;7003;46.982;15.248;2023-02-17T07:21:08;98011.16;;;1.76;100.00
13867;BME280;7003;46.982;15.248;2023-02-17T07:23:36;98013.28;;;2.38;100.00
13867;BME280;7003;46.982;15.248;2023-02-17T07:26:10;98012.41;;;2.64;100.00
13867;BME280;7003;46.982;15.248;2023-02-17T07:28:40;98007.88;;;2.97;100.00
13867;BME280;7003;46.982;15.248;2023-02-17T07:31:09;98005.50;;;2.90;100.00
13867;BME280;7003;46.982;15.248;2023-02-17T07:33:45;97997.91;;;2.99;100.00
13867;BME280;7003;46.982;15.248;2023-02-17T07:36:17;97999.13;;;3.33;100.00
13867;BME280;7003;46.982;15.248;2023-02-17T07:38:45;97998.97;;;3.55;100.00
13867;BME280;7003;46.982;15.248;2023-02-17T07:41:17;98003.44;;;3.60;100.00
13867;BME280;7003;46.982;15.248;2023-02-17T07:43:46;98003.38;;;3.44;100.00
13867;BME280;7003;46.982;15.248;2023-02-17T07:46:15;98002.69;;;3.79;100.00
13867;BME280;7003;46.982;15.248;2023-02-17T07:48:46;97992.47;;;4.13;100.00
13867;BME280;7003;46.982;15.248;2023-02-17T07:51:16;97999.06;;;4.46;100.00
13867;BME280;7003;46.982;15.248;2023-02-17T07:53:45;97996.13;;;4.73;100.00
13867;BME280;7003;46.982;15.248;2023-02-17T07:56:17;97991.34;;;5.00;100.00
13867;BME280;7003;46.982;15.248;2023-02-17T07:58:46;97997.53;;;5.35;100.00
13867;BME280;7003;46.982;15.248;2023-02-17T08:01:17;97990.22;;;5.76;100.00
13867;BME280;7003;46.982;15.248;2023-02-17T08:03:48;97994.44;;;5.77;100.00
13867;BME280;7003;46.982;15.248;2023-02-17T08:06:20;97998.56;;;6.03;100.00
13867;BME280;7003;46.982;15.248;2023-02-17T08:08:51;97991.91;;;6.11;100.00
13867;BME280;7003;46.982;15.248;2023-02-17T08:11:38;97989.63;;;6.33;100.00
13867;BME280;7003;46.982;15.248;2023-02-17T08:14:28;97981.69;;;6.33;100.00
13867;BME280;7003;46.982;15.248;2023-02-17T08:16:59;97984.94;;;6.83;100.00
13867;BME280;7003;46.982;15.248;2023-02-17T08:19:27;97983.59;;;7.09;100.00
13867;BME280;7003;46.982;15.248;2023-02-17T08:21:54;97976.50;;;7.28;100.00
13867;BME280;7003;46.982;15.248;2023-02-17T08:24:24;97971.75;;;7.87;100.00
13867;BME280;7003;46.982;15.248;2023-02-17T08:26:54;97966.22;;;8.21;100.00
13867;BME280;7003;46.982;15.248;2023-02-17T08:29:24;97971.25;;;8.55;100.00
13867;BME280;7003;46.982;15.248;2023-02-17T08:31:54;97954.53;;;8.86;100.00
13867;BME280;7003;46.982;15.248;2023-02-17T08:34:21;97969.25;;;8.93;100.00
13867;BME280;7003;46.982;15.248;2023-02-17T08:36:52;97970.84;;;9.21;100.00
13867;BME280;7003;46.982;15.248;2023-02-17T08:39:22;97971.50;;;8.99;100.00
13867;BME280;7003;46.982;15.248;2023-02-17T08:41:54;97976.34;;;9.24;100.00
13867;BME280;7003;46.982;15.248;2023-02-17T08:44:25;97969.53;;;9.46;92.20
13867;BME280;7003;46.982;15.248;2023-02-17T08:46:55;97970.50;;;9.63;89.26
13867;BME280;7003;46.982;15.248;2023-02-17T08:49:25;97958.53;;;9.88;86.58
13867;BME280;7003;46.982;15.248;2023-02-17T08:51:57;97966.78;;;10.23;82.09
13867;BME280;7003;46.982;15.248;2023-02-17T08:54:28;97961.41;;;10.59;77.17
13867;BME280;7003;46.982;15.248;2023-02-17T08:56:59;97959.38;;;10.95;68.66
13867;BME280;7003;46.982;15.248;2023-02-17T08:59:29;97953.97;;;11.17;65.72
13867;BME280;7003;46.982;15.248;2023-02-17T09:01:57;97957.28;;;11.23;65.28
13867;BME280;7003;46.982;15.248;2023-02-17T09:04:27;97947.19;;;11.51;63.03
13867;BME280;7003;46.982;15.248;2023-02-17T09:06:58;97947.22;;;11.68;59.94
13867;BME280;7003;46.982;15.248;2023-02-17T09:09:27;97933.59;;;11.95;61.16
13867;BME280;7003;46.982;15.248;2023-02-17T09:11:56;97942.06;;;12.15;57.63
13867;BME280;7003;46.982;15.248;2023-02-17T09:14:26;97939.22;;;12.37;57.74
13867;BME280;7003;46.982;15.248;2023-02-17T09:16:54;97925.22;;;12.49;58.13
13867;BME280;7003;46.982;15.248;2023-02-17T09:19:25;97931.00;;;12.59;59.09
13867;BME280;7003;46.982;15.248;2023-02-17T09:21:54;97928.69;;;12.41;59.43
13867;BME280;7003;46.982;15.248;2023-02-17T09:24:22;97948.94;;;12.16;57.20
13867;BME280;7003;46.982;15.248;2023-02-17T09:26:50;97944.75;;;11.98;59.44
13867;BME280;7003;46.982;15.248;2023-02-17T09:29:20;97935.94;;;11.88;57.19
13867;BME280;7003;46.982;15.248;2023-02-17T09:31:50;97924.25;;;11.33;58.16
13867;BME280;7003;46.982;15.248;2023-02-17T09:34:21;97938.88;;;11.70;59.03
13867;BME280;7003;46.982;15.248;2023-02-17T09:36:49;97929.84;;;11.97;58.86
13867;BME280;7003;46.982;15.248;2023-02-17T09:39:17;97937.03;;;12.22;57.09
13867;BME280;7003;46.982;15.248;2023-02-17T09:41:47;97935.69;;;12.62;57.02
13867;BME280;7003;46.982;15.248;2023-02-17T09:44:20;97933.47;;;12.73;53.20
13867;BME280;7003;46.982;15.248;2023-02-17T09:46:55;97925.88;;;12.92;53.20
13867;BME280;7003;46.982;15.248;2023-02-17T09:49:26;97918.56;;;13.01;52.33
13867;BME280;7003;46.982;15.248;2023-02-17T09:52:00;97913.06;;;13.06;52.68
13867;BME280;7003;46.982;15.248;2023-02-17T09:54:34;97915.03;;;12.89;51.19
13867;BME280;7003;46.982;15.248;2023-02-17T09:57:06;97911.16;;;13.45;51.95
13867;BME280;7003;46.982;15.248;2023-02-17T09:59:41;97904.44;;;13.60;51.84
13867;BME280;7003;46.982;15.248;2023-02-17T10:02:20;97907.72;;;14.19;51.88
13867;BME280;7003;46.982;15.248;2023-02-17T10:04:52;97909.91;;;14.38;49.16
13867;BME280;7003;46.982;15.248;2023-02-17T10:07:27;97909.53;;;14.60;47.46
13867;BME280;7003;46.982;15.248;2023-02-17T10:10:04;97908.28;;;14.57;47.32
13867;BME280;7003;46.982;15.248;2023-02-17T10:12:36;97901.16;;;14.61;48.27
13867;BME280;7003;46.982;15.248;2023-02-17T10:15:08;97900.84;;;14.63;49.44
13867;BME280;7003;46.982;15.248;2023-02-17T10:17:43;97899.06;;;14.67;47.39
13867;BME280;7003;46.982;15.248;2023-02-17T10:20:18;97902.19;;;14.81;47.49
13867;BME280;7003;46.982;15.248;2023-02-17T10:22:53;97895.38;;;15.32;45.24
13867;BME280;7003;46.982;15.248;2023-02-17T10:25:30;97899.19;;;15.84;45.63
13867;BME280;7003;46.982;15.248;2023-02-17T10:28:07;97892.13;;;16.35;43.74
13867;BME280;7003;46.982;15.248;2023-02-17T10:30:40;97893.88;;;17.02;43.36
13867;BME280;7003;46.982;15.248;2023-02-17T10:33:17;97891.69;;;17.43;42.77
13867;BME280;7003;46.982;15.248;2023-02-17T10:35:50;97880.59;;;17.79;42.10
13867;BME280;7003;46.982;15.248;2023-02-17T10:38:33;97872.38;;;18.11;41.52
13867;BME280;7003;46.982;15.248;2023-02-17T10:41:11;97866.16;;;18.52;40.11
13867;BME280;7003;46.982;15.248;2023-02-17T10:43:44;97872.22;;;18.45;37.94
13867;BME280;7003;46.982;15.248;2023-02-17T10:46:12;97861.28;;;19.07;39.22
13867;BME280;7003;46.982;15.248;2023-02-17T10:48:45;97859.59;;;19.48;37.31
13867;BME280;7003;46.982;15.248;2023-02-17T10:51:16;97855.66;;;19.72;36.78
13867;BME280;7003;46.982;15.248;2023-02-17T10:53:50;97843.38;;;19.74;35.88
13867;BME280;7003;46.982;15.248;2023-02-17T10:56:25;97841.03;;;19.73;33.95
13867;BME280;7003;46.982;15.248;2023-02-17T10:58:58;97832.16;;;19.46;35.25
13867;BME280;7003;46.982;15.248;2023-02-17T11:01:28;97846.72;;;18.85;36.27
13867;BME280;7003;46.982;15.248;2023-02-17T11:04:03;97834.06;;;18.21;37.41
13867;BME280;7003;46.982;15.248;2023-02-17T11:06:36;97830.03;;;17.88;38.14
13867;BME280;7003;46.982;15.248;2023-02-17T11:09:06;97828.47;;;17.87;37.64
13867;BME280;7003;46.982;15.248;2023-02-17T11:11:49;97821.75;;;17.43;38.76
13867;BME280;7003;46.982;15.248;2023-02-17T11:14:23;97823.56;;;17.54;37.88
13867;BME280;7003;46.982;15.248;2023-02-17T11:16:56;97821.22;;;17.91;36.87
13867;BME280;7003;46.982;15.248;2023-02-17T11:19:31;97825.41;;;18.54;35.33
13867;BME280;7003;46.982;15.248;2023-02-17T11:22:05;97829.00;;;18.84;35.32
13867;BME280;7003;46.982;15.248;2023-02-17T11:24:35;97823.84;;;19.28;34.33
13867;BME280;7003;46.982;15.248;2023-02-17T11:27:07;97813.63;;;19.41;34.51
13867;BME280;7003;46.982;15.248;2023-02-17T11:29:38;97808.84;;;19.57;34.27
13867;BME280;7003;46.982;15.248;2023-02-17T11:32:07;97808.66;;;19.46;34.25
13867;BME280;7003;46.982;15.248;2023-02-17T11:34:40;97804.53;;;19.52;34.01
13867;BME280;7003;46.982;15.248;2023-02-17T11:37:19;97795.44;;;19.38;33.61
13867;BME280;7003;46.982;15.248;2023-02-17T11:39:53;97796.59;;;19.37;33.36
13867;BME280;7003;46.982;15.248;2023-02-17T11:42:25;97799.34;;;19.10;34.04
13867;BME280;7003;46.982;15.248;2023-02-17T11:44:56;97785.78;;;19.33;34.25
13867;BME280;7003;46.982;15.248;2023-02-17T11:47:33;97780.81;;;19.69;34.55
13867;BME280;7003;46.982;15.248;2023-02-17T11:50:21;97778.59;;;19.78;34.41
13867;BME280;7003;46.982;15.248;2023-02-17T11:52:59;97773.63;;;19.80;33.70
13867;BME280;7003;46.982;15.248;2023-02-17T11:55:47;97766.84;;;19.96;33.19
13867;BME280;7003;46.982;15.248;2023-02-17T11:58:28;97768.72;;;20.33;34.69
13867;BME280;7003;46.982;15.248;2023-02-17T12:01:07;97765.19;;;21.42;33.41
13867;BME280;7003;46.982;15.248;2023-02-17T12:04:03;97757.59;;;21.94;31.71
13867;BME280;7003;46.982;15.248;2023-02-17T12:06:44;97763.88;;;22.19;31.69
13867;BME280;7003;46.982;15.248;2023-02-17T12:09:19;97753.03;;;22.12;31.28
13867;BME280;7003;46.982;15.248;2023-02-17T12:11:53;97747.47;;;21.62;31.96
13867;BME280;7003;46.982;15.248;2023-02-17T12:14:44;97743.13;;;21.33;32.58
13867;BME280;7003;46.982;15.248;2023-02-17T12:17:27;97748.53;;;21.33;33.36
13867;BME280;7003;46.982;15.248;2023-02-17T12:20:06;97747.66;;;21.14;33.75
13867;BME280;7003;46.982;15.248;2023-02-17T12:22:48;97746.28;;;20.73;33.87
13867;BME280;7003;46.982;15.248;2023-02-17T12:25:23;97742.66;;;20.55;34.30
13867;BME280;7003;46.982;15.248;2023-02-17T12:28:08;97733.50;;;20.22;35.98
13867;BME280;7003;46.982;15.248;2023-02-17T12:30:51;97731.94;;;20.18;36.81
13867;BME280;7003;46.982;15.248;2023-02-17T12:33:46;97745.41;;;19.74;37.04
13867;BME280;7003;46.982;15.248;2023-02-17T12:36:21;97734.06;;;19.98;36.95
13867;BME280;7003;46.982;15.248;2023-02-17T12:38:54;97720.13;;;19.92;38.15
13867;BME280;7003;46.982;15.248;2023-02-17T12:41:30;97725.03;;;20.20;36.62
13867;BME280;7003;46.982;15.248;2023-02-17T12:44:07;97720.63;;;20.49;37.16
13867;BME280;7003;46.982;15.248;2023-02-17T12:46:42;97711.63;;;20.96;36.56
13867;BME280;7003;46.982;15.248;2023-02-17T12:49:15;97715.16;;;21.07;36.21
13867;BME280;7003;46.982;15.248;2023-02-17T12:51:48;97700.66;;;21.44;35.33
13867;BME280;7003;46.982;15.248;2023-02-17T12:54:23;97700.25;;;21.52;34.75
13867;BME280;7003;46.982;15.248;2023-02-17T12:57:07;97689.81;;;21.37;34.87
13867;BME280;7003;46.982;15.248;2023-02-17T12:59:39;97685.09;;;21.23;35.91
13867;BME280;7003;46.982;15.248;2023-02-17T13:02:11;97679.38;;;21.35;35.52
13867;BME280;7003;46.982;15.248;2023-02-17T13:04:43;97680.41;;;21.09;34.44
13867;BME280;7003;46.982;15.248;2023-02-17T13:07:24;97677.44;;;21.46;34.61
13867;BME280;7003;46.982;15.248;2023-02-17T13:09:58;97683.28;;;21.59;34.50
13867;BME280;7003;46.982;15.248;2023-02-17T13:12:35;97677.44;;;21.39;34.04
13867;BME280;7003;46.982;15.248;2023-02-17T13:15:29;97678.72;;;20.84;35.27
13867;BME280;7003;46.982;15.248;2023-02-17T13:18:00;97677.81;;;20.51;36.29
13867;BME280;7003;46.982;15.248;2023-02-17T13:20:40;97675.56;;;20.13;36.76
13867;BME280;7003;46.982;15.248;2023-02-17T13:23:13;97680.41;;;20.41;36.98
13867;BME280;7003;46.982;15.248;2023-02-17T13:25:42;97678.75;;;20.29;36.07